Time;durP1;ratioP1;P1;durP2;ratioP2;P2;SDS_P1;SDS_P2;PMS_P1;PMS_P2;Temp;Humidity;BMP_temperature;BMP_pressure;BME280_temperature;BME280_humidity;BME280_pressure;Samples;Min_cycle;Max_cycle;Signal;HPM_P1;HPM_P2
2023/07/25 00:02:17;;;;;;;4.00;1.40;;;19.70;59.30;;;;;;4952937;28;20074;-71
2023/07/25 00:04:45;;;;;;;4.18;1.30;;;19.90;58.90;;;;;;4950865;28;20114;-71
2023/07/25 00:07:12;;;;;;;5.20;1.40;;;20.20;58.60;;;;;;4952227;28;20038;-71
2023/07/25 00:09:39;;;;;;;5.95;1.67;;;20.80;55.60;;;;;;4948549;28;20389;-71
2023/07/25 00:12:07;;;;;;;2.88;1.33;;;21.20;54.60;;;;;;4949507;28;20058;-71
2023/07/25 00:14:35;;;;;;;5.15;1.65;;;20.90;56.30;;;;;;4947015;28;20027;-71
2023/07/25 00:17:02;;;;;;;8.57;1.63;;;20.70;56.40;;;;;;4946541;28;20075;-71
2023/07/25 00:19:30;;;;;;;5.78;1.63;;;20.80;57.10;;;;;;4937726;28;20039;-71
2023/07/25 00:21:57;;;;;;;4.32;1.65;;;21.20;54.50;;;;;;4952922;28;20418;-71
2023/07/25 00:24:24;;;;;;;9.18;1.80;;;21.60;53.90;;;;;;4950867;28;20027;-71
2023/07/25 00:26:52;;;;;;;7.57;2.08;;;22.00;53.80;;;;;;4952572;28;20031;-72
2023/07/25 00:29:19;;;;;;;6.80;2.10;;;22.60;51.80;;;;;;4950594;28;20552;-72
2023/07/25 00:31:46;;;;;;;12.07;2.30;;;22.10;52.00;;;;;;4950634;28;20078;-72
2023/07/25 00:34:14;;;;;;;6.40;2.00;;;21.90;53.50;;;;;;4942493;28;20396;-70
2023/07/25 00:36:41;;;;;;;10.77;2.05;;;22.20;53.40;;;;;;4951016;28;20047;-71
2023/07/25 00:39:10;;;;;;;6.60;2.05;;;22.40;51.90;;;;;;4949956;28;20031;-72
2023/07/25 00:41:38;;;;;;;8.13;2.22;;;22.60;53.10;;;;;;4949883;28;20070;-70
2023/07/25 00:44:05;;;;;;;7.32;2.47;;;23.00;50.40;;;;;;4948862;28;20176;-72
2023/07/25 00:46:33;;;;;;;8.48;2.15;;;22.90;52.20;;;;;;4952214;28;20070;-72
2023/07/25 00:49:01;;;;;;;9.32;2.30;;;23.40;50.20;;;;;;4946814;28;20122;-71
2023/07/25 00:51:32;;;;;;;9.18;2.28;;;23.20;50.20;;;;;;4952197;28;20038;-72
2023/07/25 00:53:59;;;;;;;6.07;2.30;;;23.30;51.60;;;;;;4950885;28;20513;-71
2023/07/25 00:56:27;;;;;;;5.15;2.00;;;23.50;51.00;;;;;;4947175;28;20094;-72
2023/07/25 00:58:57;;;;;;;7.63;2.67;;;24.10;50.50;;;;;;4936327;28;20029;-72
2023/07/25 01:01:27;;;;;;;9.77;2.92;;;24.30;50.00;;;;;;4949347;28;20082;-71
2023/07/25 01:03:55;;;;;;;7.90;2.72;;;24.60;49.90;;;;;;4944943;28;20059;-71
2023/07/25 01:06:23;;;;;;;8.57;2.90;;;24.20;50.00;;;;;;4945855;28;20469;-71
2023/07/25 01:08:55;;;;;;;11.73;3.25;;;24.20;49.70;;;;;;4947140;28;20039;-72
2023/07/25 01:11:24;;;;;;;6.32;2.92;;;24.20;49.80;;;;;;4947347;28;20047;-71
2023/07/25 01:13:52;;;;;;;7.10;2.83;;;24.30;48.60;;;;;;4943825;28;20030;-72
2023/07/25 01:16:23;;;;;;;8.25;2.95;;;24.00;50.30;;;;;;4942013;28;20054;-72
2023/07/25 01:18:52;;;;;;;6.47;2.80;;;24.10;50.10;;;;;;4944011;28;20034;-72
2023/07/25 01:21:21;;;;;;;7.43;3.10;;;24.40;49.10;;;;;;4948708;28;20400;-72
2023/07/25 01:23:49;;;;;;;7.15;2.60;;;24.60;49.70;;;;;;4948476;28;20140;-70
2023/07/25 01:26:19;;;;;;;8.40;2.70;;;24.90;49.00;;;;;;4933306;28;20075;-72
2023/07/25 01:28:47;;;;;;;6.15;2.55;;;24.80;47.80;;;;;;4939671;28;20105;-71
2023/07/25 01:31:14;;;;;;;5.40;2.55;;;24.30;48.90;;;;;;4944185;28;20033;-72
2023/07/25 01:33:42;;;;;;;9.05;2.70;;;24.20;49.30;;;;;;4946822;28;20482;-71
2023/07/25 01:36:09;;;;;;;5.93;2.53;;;24.60;49.70;;;;;;4947394;28;20082;-73
2023/07/25 01:38:36;;;;;;;6.30;2.65;;;25.10;48.70;;;;;;4952117;28;20106;-72
2023/07/25 01:41:04;;;;;;;5.05;2.35;;;25.60;47.80;;;;;;4947448;28;20031;-72
2023/07/25 01:43:31;;;;;;;6.55;2.20;;;25.60;45.50;;;;;;4948802;28;20404;-72
2023/07/25 01:45:58;;;;;;;8.13;2.20;;;24.70;48.30;;;;;;4950685;28;20019;-70
2023/07/25 01:48:25;;;;;;;6.35;2.45;;;24.70;46.70;;;;;;4953017;28;20038;-72
2023/07/25 01:50:53;;;;;;;5.50;2.15;;;24.90;46.40;;;;;;4948650;28;20027;-71
2023/07/25 01:53:20;;;;;;;5.57;2.15;;;23.80;48.30;;;;;;4949784;28;20035;-72
2023/07/25 01:55:48;;;;;;;9.10;2.35;;;23.80;48.10;;;;;;4950960;28;20493;-71
2023/07/25 01:58:15;;;;;;;8.43;2.45;;;23.80;48.50;;;;;;4959526;28;20134;-71
2023/07/25 02:00:42;;;;;;;9.75;2.63;;;24.10;47.40;;;;;;4951971;28;20473;-71
2023/07/25 02:03:10;;;;;;;6.90;2.00;;;24.40;47.40;;;;;;4944543;28;20046;-71
2023/07/25 02:05:38;;;;;;;4.97;1.80;;;24.50;48.20;;;;;;4952127;28;20035;-72
2023/07/25 02:08:05;;;;;;;4.78;1.70;;;24.70;46.60;;;;;;4952255;28;20473;-72
2023/07/25 02:10:32;;;;;;;4.55;1.40;;;25.20;44.90;;;;;;4953626;28;20441;-72
2023/07/25 02:13:00;;;;;;;4.38;1.27;;;25.20;44.20;;;;;;4954820;28;20146;-72
2023/07/25 02:15:27;;;;;;;5.63;1.50;;;25.10;45.10;;;;;;4951705;28;20047;-72
2023/07/25 02:17:54;;;;;;;2.85;1.30;;;25.30;42.70;;;;;;4954303;28;20031;-72
2023/07/25 02:20:25;;;;;;;6.55;2.13;;;24.80;43.60;;;;;;4953649;28;20031;-72
2023/07/25 02:22:53;;;;;;;6.85;1.67;;;24.90;45.50;;;;;;4955204;28;20035;-72
2023/07/25 02:25:21;;;;;;;4.32;1.67;;;24.70;45.40;;;;;;4951306;28;20035;-72
2023/07/25 02:27:48;;;;;;;3.40;1.40;;;25.20;43.60;;;;;;4955796;28;20378;-71
2023/07/25 02:30:20;;;;;;;5.72;1.38;;;25.20;45.00;;;;;;4954874;28;20038;-70
2023/07/25 02:32:48;;;;;;;4.50;1.40;;;25.40;44.50;;;;;;4952272;28;20520;-72
2023/07/25 02:35:15;;;;;;;4.63;1.65;;;25.30;43.70;;;;;;4954157;28;20063;-72
2023/07/25 02:37:43;;;;;;;5.65;1.23;;;25.30;43.10;;;;;;4953800;28;20050;-72
2023/07/25 02:40:10;;;;;;;7.95;1.65;;;25.30;43.40;;;;;;4952898;28;20106;-71
2023/07/25 02:42:37;;;;;;;2.95;1.45;;;25.50;43.20;;;;;;4956456;28;20034;-72
2023/07/25 02:45:05;;;;;;;3.95;1.67;;;25.70;41.40;;;;;;4954829;28;20027;-72
2023/07/25 02:47:32;;;;;;;4.75;1.30;;;25.30;44.30;;;;;;4957426;28;20035;-71
2023/07/25 02:50:00;;;;;;;4.05;1.88;;;25.40;44.10;;;;;;4951790;28;20050;-71
2023/07/25 02:52:27;;;;;;;4.88;1.90;;;25.00;42.10;;;;;;4954192;28;20458;-72
2023/07/25 02:54:54;;;;;;;7.03;1.75;;;24.80;43.60;;;;;;4950829;28;20181;-74
2023/07/25 02:57:22;;;;;;;5.75;1.90;;;24.70;44.50;;;;;;4950035;28;20083;-71
2023/07/25 02:59:49;;;;;;;4.97;2.42;;;24.70;42.90;;;;;;4951981;28;20027;-72
2023/07/25 03:02:16;;;;;;;5.40;2.00;;;24.60;43.90;;;;;;4953328;28;20035;-73
2023/07/25 03:04:44;;;;;;;5.72;2.08;;;24.50;44.60;;;;;;4952407;28;20034;-72
2023/07/25 03:07:11;;;;;;;8.90;2.08;;;24.30;44.40;;;;;;4954034;28;20035;-73
2023/07/25 03:09:40;;;;;;;7.95;2.00;;;24.20;46.30;;;;;;4952296;28;20121;-72
2023/07/25 03:12:08;;;;;;;10.90;2.20;;;23.90;46.00;;;;;;4951492;28;21129;-72
2023/07/25 03:14:35;;;;;;;5.95;1.85;;;24.30;44.70;;;;;;4952839;28;20109;-72
2023/07/25 03:17:02;;;;;;;4.75;1.50;;;24.50;44.20;;;;;;4953161;28;20137;-72
2023/07/25 03:19:30;;;;;;;5.38;1.77;;;24.50;43.70;;;;;;4956562;28;20039;-72
2023/07/25 03:21:57;;;;;;;9.18;1.60;;;24.40;43.80;;;;;;4955174;28;20027;-73
2023/07/25 03:24:24;;;;;;;5.60;1.55;;;24.40;43.50;;;;;;4953136;28;20428;-71
2023/07/25 03:26:52;;;;;;;4.70;1.55;;;24.60;43.00;;;;;;4957625;28;20031;-71
2023/07/25 03:29:19;;;;;;;4.57;1.30;;;24.30;43.70;;;;;;4950915;28;20031;-72
2023/07/25 03:31:46;;;;;;;6.63;1.33;;;23.60;42.80;;;;;;4952775;28;20389;-71
2023/07/25 03:34:14;;;;;;;4.88;1.48;;;22.80;45.00;;;;;;4951440;28;20432;-71
2023/07/25 03:36:41;;;;;;;5.35;1.40;;;22.50;45.40;;;;;;4951407;28;20359;-72
2023/07/25 03:39:08;;;;;;;5.70;1.30;;;22.30;46.50;;;;;;4940287;28;20504;-71
2023/07/25 03:41:36;;;;;;;6.22;1.50;;;22.10;47.10;;;;;;4953342;28;20038;-72
2023/07/25 03:44:03;;;;;;;5.72;2.03;;;21.90;47.20;;;;;;4952203;28;20027;-72
2023/07/25 03:46:30;;;;;;;6.47;1.33;;;21.50;48.60;;;;;;4952997;28;20055;-71
2023/07/25 03:48:58;;;;;;;3.78;1.42;;;21.60;48.80;;;;;;4953807;28;20035;-72
2023/07/25 03:51:25;;;;;;;7.53;1.60;;;21.50;48.20;;;;;;4952753;28;20315;-72
2023/07/25 03:53:52;;;;;;;5.43;1.73;;;21.10;49.20;;;;;;4951474;28;20070;-70
2023/07/25 03:56:20;;;;;;;7.95;1.60;;;20.90;49.20;;;;;;4950402;28;20509;-72
2023/07/25 03:58:47;;;;;;;5.47;1.92;;;20.70;49.70;;;;;;4946516;28;20047;-72
2023/07/25 04:01:14;;;;;;;5.22;1.80;;;20.60;49.80;;;;;;4949755;28;20041;-71
2023/07/25 04:03:42;;;;;;;6.60;1.90;;;20.50;49.90;;;;;;4948918;28;20385;-69
2023/07/25 04:06:09;;;;;;;5.60;1.70;;;20.30;50.70;;;;;;4952457;28;20043;-68
2023/07/25 04:08:36;;;;;;;4.70;1.55;;;20.20;51.30;;;;;;4952139;28;20027;-68
2023/07/25 04:11:04;;;;;;;4.72;1.77;;;20.40;50.80;;;;;;4949007;28;20265;-71
2023/07/25 04:13:31;;;;;;;6.43;1.70;;;20.40;50.90;;;;;;4952679;28;20023;-68
2023/07/25 04:15:58;;;;;;;5.75;1.67;;;20.60;49.40;;;;;;4951543;28;20039;-69
2023/07/25 04:18:26;;;;;;;7.78;1.85;;;20.60;49.90;;;;;;4952993;28;20035;-70
2023/07/25 04:20:53;;;;;;;3.42;1.70;;;20.40;50.20;;;;;;4950677;28;20046;-70
2023/07/25 04:23:26;;;;;;;7.80;2.08;;;20.40;50.20;;;;;;4965738;28;20086;-69
2023/07/25 04:25:53;;;;;;;4.57;1.48;;;20.20;52.10;;;;;;4948448;28;20038;-69
2023/07/25 04:28:20;;;;;;;6.47;1.60;;;20.20;51.60;;;;;;4951753;28;20619;-68
2023/07/25 04:30:48;;;;;;;6.88;1.67;;;20.30;51.80;;;;;;4955127;28;20046;-70
2023/07/25 04:33:15;;;;;;;6.18;1.80;;;20.10;51.60;;;;;;4955447;28;20033;-69
2023/07/25 04:35:45;;;;;;;7.47;2.15;;;20.10;51.50;;;;;;4951359;28;20043;-69
2023/07/25 04:38:15;;;;;;;6.43;1.60;;;20.30;50.80;;;;;;4954318;28;20031;-68
2023/07/25 04:40:46;;;;;;;5.78;1.80;;;20.10;51.10;;;;;;4952078;28;20045;-67
2023/07/25 04:43:13;;;;;;;7.80;1.80;;;20.10;50.80;;;;;;4951691;28;20031;-69
2023/07/25 04:45:40;;;;;;;2.75;1.48;;;20.10;51.20;;;;;;4949220;28;20122;-69
2023/07/25 04:48:08;;;;;;;5.47;1.75;;;19.90;50.80;;;;;;4951728;28;20110;-69
2023/07/25 04:50:35;;;;;;;3.70;1.55;;;19.70;51.40;;;;;;4948326;28;20039;-69
2023/07/25 04:53:03;;;;;;;5.07;1.67;;;19.60;51.80;;;;;;4952585;28;20028;-69
2023/07/25 04:55:30;;;;;;;6.85;2.33;;;19.40;51.90;;;;;;4949711;28;20098;-68
2023/07/25 04:57:58;;;;;;;6.18;2.20;;;19.30;52.10;;;;;;4960660;28;20540;-68
2023/07/25 05:00:25;;;;;;;4.97;2.08;;;19.20;52.20;;;;;;4951131;28;20489;-69
2023/07/25 05:02:53;;;;;;;5.68;1.88;;;19.10;51.80;;;;;;4948217;28;20596;-72
2023/07/25 05:05:20;;;;;;;6.57;2.28;;;19.10;52.60;;;;;;4946359;28;20038;-69
2023/07/25 05:07:47;;;;;;;3.22;2.00;;;19.30;52.30;;;;;;4952113;28;20110;-69
2023/07/25 05:10:15;;;;;;;6.00;1.80;;;19.10;52.60;;;;;;4951628;28;20042;-69
2023/07/25 05:12:42;;;;;;;3.97;1.70;;;19.30;53.20;;;;;;4952142;28;20023;-69
2023/07/25 05:15:10;;;;;;;6.15;1.90;;;19.30;52.50;;;;;;4952561;28;20079;-69
2023/07/25 05:17:37;;;;;;;6.70;2.22;;;19.20;51.60;;;;;;4951356;28;20035;-69
2023/07/25 05:20:05;;;;;;;4.68;1.52;;;19.10;52.50;;;;;;4950129;28;20418;-69
2023/07/25 05:22:32;;;;;;;6.65;1.75;;;19.20;53.10;;;;;;4951108;28;20090;-70
2023/07/25 05:24:59;;;;;;;5.75;2.60;;;19.00;52.30;;;;;;4948196;28;20035;-70
2023/07/25 05:27:27;;;;;;;6.38;2.13;;;19.00;51.90;;;;;;4952185;28;20038;-69
2023/07/25 05:29:54;;;;;;;5.40;2.22;;;18.90;52.90;;;;;;4949773;28;20023;-69
2023/07/25 05:32:22;;;;;;;5.78;2.17;;;19.00;53.30;;;;;;4937543;28;20084;-69
2023/07/25 05:34:50;;;;;;;3.35;1.38;;;18.90;54.00;;;;;;4945241;28;20114;-69
2023/07/25 05:37:23;;;;;;;2.78;1.27;;;18.90;53.60;;;;;;4951532;28;20043;-69
2023/07/25 05:39:53;;;;;;;4.60;1.52;;;19.00;53.80;;;;;;4942161;28;20082;-69
2023/07/25 05:42:20;;;;;;;3.13;1.40;;;19.20;53.50;;;;;;4952372;28;20066;-69
2023/07/25 05:44:48;;;;;;;5.88;1.67;;;19.20;53.20;;;;;;4947003;28;20311;-69
2023/07/25 05:47:15;;;;;;;6.22;1.98;;;19.30;53.80;;;;;;4953765;28;20030;-69
2023/07/25 05:49:43;;;;;;;4.10;1.30;;;19.20;53.10;;;;;;4950952;28;20366;-67
2023/07/25 05:52:10;;;;;;;5.22;1.50;;;19.00;53.90;;;;;;4947481;28;20027;-68
2023/07/25 05:54:37;;;;;;;4.95;2.00;;;19.00;53.20;;;;;;4946307;28;20031;-70
2023/07/25 05:57:05;;;;;;;4.55;1.85;;;19.00;52.90;;;;;;4953994;28;20524;-69
2023/07/25 05:59:33;;;;;;;8.25;2.40;;;19.10;53.10;;;;;;4950288;28;20039;-69
2023/07/25 06:02:00;;;;;;;6.50;2.40;;;19.20;51.70;;;;;;4949296;28;20034;-69
2023/07/25 06:04:27;;;;;;;4.45;1.65;;;19.30;51.80;;;;;;4948185;28;20028;-70
2023/07/25 06:06:54;;;;;;;5.20;1.90;;;19.40;52.10;;;;;;4954241;28;20322;-70
2023/07/25 06:09:22;;;;;;;3.05;1.88;;;19.30;51.60;;;;;;4946435;28;20114;-69
2023/07/25 06:11:49;;;;;;;6.30;1.88;;;19.40;51.10;;;;;;4946526;28;20027;-69
2023/07/25 06:14:17;;;;;;;4.60;1.70;;;19.40;51.80;;;;;;4947369;28;20066;-71
2023/07/25 06:16:44;;;;;;;6.65;1.70;;;19.50;51.70;;;;;;4951321;28;20095;-70
2023/07/25 06:19:11;;;;;;;5.28;1.70;;;19.60;56.40;;;;;;4943675;28;20085;-72
2023/07/25 06:21:39;;;;;;;4.40;1.65;;;19.70;58.00;;;;;;4950680;28;20042;-71
2023/07/25 06:24:06;;;;;;;5.13;1.60;;;19.50;58.60;;;;;;4946074;28;20038;-70
2023/07/25 06:26:34;;;;;;;6.28;1.65;;;19.50;59.20;;;;;;4946099;28;20040;-70
2023/07/25 06:29:01;;;;;;;3.55;1.60;;;19.50;59.80;;;;;;4945623;28;20500;-71
2023/07/25 06:31:29;;;;;;;4.75;1.85;;;19.40;60.70;;;;;;4951445;28;20039;-72
2023/07/25 06:33:56;;;;;;;4.82;1.65;;;19.30;60.90;;;;;;4953075;28;20031;-71
2023/07/25 06:36:23;;;;;;;6.88;2.38;;;19.20;61.60;;;;;;4948258;28;20035;-71
2023/07/25 06:38:51;;;;;;;5.75;1.67;;;19.10;61.70;;;;;;4935817;28;20489;-70
2023/07/25 06:41:18;;;;;;;5.85;1.73;;;19.00;61.80;;;;;;4956341;28;20023;-71
2023/07/25 06:43:45;;;;;;;6.22;1.55;;;19.00;62.20;;;;;;4949881;28;20031;-71
2023/07/25 06:46:13;;;;;;;5.10;1.70;;;18.90;62.70;;;;;;4951317;28;20496;-70
2023/07/25 06:48:40;;;;;;;4.50;1.38;;;18.70;63.30;;;;;;4946962;28;20034;-71
2023/07/25 06:51:07;;;;;;;5.15;1.65;;;18.50;63.80;;;;;;4953461;28;20019;-71
2023/07/25 06:53:35;;;;;;;4.80;1.80;;;18.40;67.00;;;;;;4954466;28;20046;-71
2023/07/25 06:56:02;;;;;;;8.05;2.20;;;18.10;69.30;;;;;;4952150;28;20066;-72
2023/07/25 06:58:29;;;;;;;10.02;2.90;;;17.90;71.00;;;;;;4949842;28;20039;-71
2023/07/25 07:00:58;;;;;;;7.55;2.08;;;17.80;72.30;;;;;;4950133;28;20469;-71
2023/07/25 07:03:25;;;;;;;15.50;2.17;;;17.70;73.60;;;;;;4947678;28;20031;-71
2023/07/25 07:05:54;;;;;;;5.32;2.10;;;17.60;75.90;;;;;;4938251;28;20027;-70
2023/07/25 07:08:22;;;;;;;6.07;2.15;;;17.50;77.40;;;;;;4950223;28;20031;-70
2023/07/25 07:10:54;;;;;;;4.93;2.55;;;17.40;78.10;;;;;;4940218;28;20034;-71
2023/07/25 07:13:22;;;;;;;8.10;3.53;;;17.30;79.20;;;;;;4950365;28;20055;-71
2023/07/25 07:15:50;;;;;;;7.43;3.03;;;17.10;80.20;;;;;;4950459;28;20053;-70
2023/07/25 07:18:17;;;;;;;7.57;3.50;;;17.20;80.50;;;;;;4955281;28;20031;-71
2023/07/25 07:20:48;;;;;;;10.48;3.83;;;17.00;81.40;;;;;;4951958;28;20038;-71
2023/07/25 07:23:16;;;;;;;7.47;3.70;;;17.00;82.10;;;;;;4952968;28;20030;-71
2023/07/25 07:25:44;;;;;;;6.80;3.78;;;16.90;82.80;;;;;;4949679;28;20035;-71
2023/07/25 07:28:12;;;;;;;7.78;3.30;;;16.80;83.40;;;;;;4953698;28;20560;-71
2023/07/25 07:30:40;;;;;;;5.63;2.50;;;16.70;83.90;;;;;;4947624;28;20043;-70
2023/07/25 07:33:07;;;;;;;5.03;2.97;;;16.70;84.20;;;;;;4947735;28;20758;-70
2023/07/25 07:35:35;;;;;;;7.55;2.50;;;16.50;85.40;;;;;;4947552;28;20053;-69
2023/07/25 07:38:03;;;;;;;8.60;3.00;;;16.50;85.90;;;;;;4953112;28;20117;-70
2023/07/25 07:40:30;;;;;;;9.43;2.92;;;16.50;86.70;;;;;;4948693;28;20028;-69
2023/07/25 07:42:57;;;;;;;8.18;3.03;;;16.30;86.90;;;;;;4950018;28;20317;-69
2023/07/25 07:45:26;;;;;;;8.65;2.50;;;16.30;88.00;;;;;;4948757;28;20062;-70
2023/07/25 07:47:53;;;;;;;7.55;2.58;;;16.20;88.30;;;;;;4957775;28;20050;-73
2023/07/25 07:50:21;;;;;;;5.75;2.80;;;16.10;89.00;;;;;;4939118;28;20042;-70
2023/07/25 07:52:49;;;;;;;6.50;2.95;;;16.00;89.80;;;;;;4950463;28;20035;-69
2023/07/25 07:55:17;;;;;;;7.88;2.67;;;15.90;90.10;;;;;;4948029;28;20038;-72
2023/07/25 07:57:46;;;;;;;6.32;2.72;;;15.80;90.40;;;;;;4954795;28;20047;-69
2023/07/25 08:00:15;;;;;;;10.65;3.63;;;15.80;90.50;;;;;;4951325;28;20033;-70
2023/07/25 08:02:44;;;;;;;6.00;3.33;;;15.70;91.00;;;;;;4957191;28;20045;-68
2023/07/25 08:05:12;;;;;;;8.68;4.38;;;15.70;90.90;;;;;;4945796;28;20062;-70
2023/07/25 08:07:40;;;;;;;8.35;5.30;;;15.70;91.00;;;;;;4959476;28;20098;-70
2023/07/25 08:10:08;;;;;;;12.27;7.05;;;15.70;91.00;;;;;;4951317;28;20489;-70
2023/07/25 08:12:36;;;;;;;10.73;4.63;;;15.60;91.40;;;;;;4956309;28;20054;-70
2023/07/25 08:15:03;;;;;;;16.70;4.93;;;15.50;91.40;;;;;;4937883;28;20033;-69
2023/07/25 08:17:31;;;;;;;7.03;4.55;;;15.40;91.80;;;;;;4953293;28;20079;-69
2023/07/25 08:19:59;;;;;;;12.15;4.32;;;15.40;91.70;;;;;;4919906;28;20109;-71
2023/07/25 08:22:26;;;;;;;7.90;3.50;;;15.30;92.00;;;;;;4942890;28;20456;-72
2023/07/25 08:24:54;;;;;;;7.70;3.20;;;15.30;92.00;;;;;;4948927;28;20385;-70
2023/07/25 08:27:21;;;;;;;7.65;2.92;;;15.30;92.10;;;;;;4941539;28;20027;-71
2023/07/25 08:29:49;;;;;;;6.97;2.75;;;15.30;92.30;;;;;;4940817;28;20019;-69
2023/07/25 08:32:16;;;;;;;5.20;3.00;;;15.20;92.40;;;;;;4941159;28;20193;-72
2023/07/25 08:34:44;;;;;;;7.28;3.00;;;15.10;92.70;;;;;;4943534;28;20065;-71
2023/07/25 08:37:12;;;;;;;9.93;3.15;;;15.00;92.90;;;;;;4928909;28;20090;-70
2023/07/25 08:39:39;;;;;;;7.30;3.30;;;15.00;92.80;;;;;;4959373;28;20122;-70
2023/07/25 08:42:07;;;;;;;12.00;3.30;;;14.90;93.00;;;;;;4941618;28;20078;-71
2023/07/25 08:44:35;;;;;;;7.22;3.60;;;14.90;93.00;;;;;;4950120;28;20032;-71
2023/07/25 08:47:17;;;;;;;7.10;3.42;;;14.80;93.00;;;;;;4945433;28;20137;-71
2023/07/25 08:49:49;;;;;;;12.27;4.00;;;14.70;93.30;;;;;;4946546;28;20032;-70
2023/07/25 08:52:19;;;;;;;6.80;3.22;;;14.70;93.50;;;;;;4940623;28;20027;-70
2023/07/25 08:54:49;;;;;;;6.40;3.53;;;14.60;93.70;;;;;;4951064;28;20022;-71
2023/07/25 08:57:20;;;;;;;5.75;3.60;;;14.50;93.70;;;;;;4934703;28;20074;-70
2023/07/25 08:59:49;;;;;;;10.57;4.53;;;14.50;94.00;;;;;;4955085;28;20535;-71
2023/07/25 09:02:17;;;;;;;8.88;3.83;;;14.40;94.00;;;;;;4931725;28;20129;-70
2023/07/25 09:04:46;;;;;;;9.32;4.18;;;14.20;94.30;;;;;;4934541;28;20599;-71
2023/07/25 09:07:13;;;;;;;11.82;4.10;;;14.10;94.20;;;;;;4950028;28;20042;-70
2023/07/25 09:09:41;;;;;;;7.05;3.58;;;14.00;94.30;;;;;;4948632;28;20042;-71
2023/07/25 09:12:09;;;;;;;10.05;4.18;;;13.90;94.30;;;;;;4952571;28;20035;-70
2023/07/25 09:14:39;;;;;;;7.78;4.40;;;13.80;94.40;;;;;;4927098;28;20478;-73
2023/07/25 09:17:07;;;;;;;7.85;4.38;;;13.70;94.40;;;;;;4940918;28;20035;-71
2023/07/25 09:19:35;;;;;;;8.70;3.72;;;13.50;94.40;;;;;;4946198;28;20027;-70
2023/07/25 09:22:03;;;;;;;8.52;4.25;;;13.50;94.50;;;;;;4957077;28;20038;-70
2023/07/25 09:24:42;;;;;;;15.20;4.75;;;13.50;94.60;;;;;;4943425;28;20455;-74
2023/07/25 09:27:17;;;;;;;12.77;4.78;;;13.40;94.90;;;;;;4923041;28;20043;-70
2023/07/25 09:29:46;;;;;;;10.52;4.53;;;13.30;95.10;;;;;;4941431;28;20027;-69
2023/07/25 09:32:25;;;;;;;12.85;4.75;;;13.30;94.90;;;;;;4947108;28;20020;-70
2023/07/25 09:35:00;;;;;;;9.98;4.85;;;13.10;94.80;;;;;;4939953;28;20348;-71
2023/07/25 09:37:29;;;;;;;14.30;4.88;;;13.10;94.90;;;;;;4946179;28;20036;-71
2023/07/25 09:39:57;;;;;;;12.27;4.50;;;13.00;94.80;;;;;;4944163;28;20182;-70
2023/07/25 09:42:25;;;;;;;12.63;4.32;;;12.90;95.00;;;;;;4935593;28;20563;-70
2023/07/25 09:44:53;;;;;;;12.27;4.72;;;12.80;95.00;;;;;;4944737;28;20031;-70
2023/07/25 09:47:28;;;;;;;11.88;4.70;;;12.80;95.10;;;;;;4955485;28;20031;-70
2023/07/25 09:49:57;;;;;;;10.43;4.80;;;12.70;95.20;;;;;;4952500;28;20027;-70
2023/07/25 09:52:25;;;;;;;11.93;5.50;;;12.70;95.30;;;;;;4953183;28;20469;-71
2023/07/25 09:54:53;;;;;;;13.95;5.60;;;12.60;95.30;;;;;;4955275;28;20138;-70
2023/07/25 09:57:20;;;;;;;11.65;5.40;;;12.60;95.40;;;;;;4957839;28;20137;-70
2023/07/25 09:59:49;;;;;;;12.90;6.35;;;12.50;95.50;;;;;;4950549;28;20118;-70
2023/07/25 10:02:17;;;;;;;14.68;5.72;;;12.40;95.50;;;;;;4944847;28;20028;-69
2023/07/25 10:04:46;;;;;;;13.48;5.00;;;12.50;95.80;;;;;;4935290;28;20021;-69
2023/07/25 10:07:14;;;;;;;13.15;5.28;;;12.50;96.20;;;;;;4956721;28;20035;-70
2023/07/25 10:09:44;;;;;;;12.95;7.30;;;12.60;96.30;;;;;;4951283;28;20027;-70
2023/07/25 10:12:13;;;;;;;16.63;8.90;;;12.60;96.40;;;;;;4950119;28;20043;-69
2023/07/25 10:14:40;;;;;;;19.35;10.57;;;12.50;96.70;;;;;;4949873;28;20106;-70
2023/07/25 10:17:08;;;;;;;19.25;8.90;;;12.40;96.80;;;;;;4950966;28;20737;-70
2023/07/25 10:19:50;;;;;;;14.82;8.15;;;12.40;97.10;;;;;;4942774;28;20031;-69
2023/07/25 10:22:38;;;;;;;15.55;7.65;;;12.30;97.30;;;;;;4953522;28;20063;-70
2023/07/25 10:25:17;;;;;;;17.80;8.32;;;12.30;97.30;;;;;;4964399;28;20036;-70
2023/07/25 10:27:45;;;;;;;20.10;9.93;;;12.40;97.50;;;;;;4950022;28;20038;-70
2023/07/25 10:30:24;;;;;;;13.32;8.82;;;12.30;97.50;;;;;;4944389;28;20035;-70
2023/07/25 10:33:11;;;;;;;13.88;8.35;;;12.20;97.60;;;;;;4946959;28;20393;-69
2023/07/25 10:35:56;;;;;;;30.55;8.20;;;12.30;97.50;;;;;;4949502;28;20038;-69
2023/07/25 10:38:30;;;;;;;10.98;8.23;;;12.20;97.70;;;;;;4953353;28;20082;-69
2023/07/25 10:40:59;;;;;;;14.52;7.82;;;12.20;97.70;;;;;;4950128;28;20634;-69
2023/07/25 10:43:29;;;;;;;13.40;7.35;;;12.20;97.70;;;;;;4954939;28;20023;-70
2023/07/25 10:46:00;;;;;;;14.13;8.27;;;12.10;97.70;;;;;;4944057;28;20090;-70
2023/07/25 10:48:28;;;;;;;14.50;7.78;;;12.10;97.80;;;;;;4951243;28;21049;-70
2023/07/25 10:50:56;;;;;;;16.50;6.82;;;12.10;97.80;;;;;;4951361;28;20030;-70
2023/07/25 10:53:24;;;;;;;12.65;6.78;;;12.10;97.80;;;;;;4947139;28;20552;-70
2023/07/25 10:56:07;;;;;;;20.48;7.85;;;12.10;97.60;;;;;;4945595;28;20122;-69
2023/07/25 10:58:39;;;;;;;15.68;6.57;;;12.10;97.50;;;;;;4953417;28;20058;-70
2023/07/25 11:01:07;;;;;;;12.65;6.32;;;12.20;97.50;;;;;;4952000;28;20039;-70
2023/07/25 11:03:38;;;;;;;13.50;5.93;;;12.10;97.50;;;;;;4910586;28;20550;-69
2023/07/25 11:06:08;;;;;;;12.77;5.45;;;12.10;97.60;;;;;;4940976;28;20035;-70
2023/07/25 11:08:39;;;;;;;13.05;6.22;;;12.10;97.40;;;;;;4910829;28;20085;-71
2023/07/25 11:11:09;;;;;;;9.20;5.63;;;12.20;97.20;;;;;;4946900;28;20034;-71
2023/07/25 11:13:43;;;;;;;11.55;6.07;;;12.10;97.20;;;;;;4949084;28;20094;-71
2023/07/25 11:16:13;;;;;;;9.15;5.93;;;12.00;97.40;;;;;;4950848;28;20047;-69
2023/07/25 11:18:51;;;;;;;12.45;6.38;;;12.00;97.40;;;;;;4959012;28;20033;-68
2023/07/25 11:21:19;;;;;;;13.10;6.18;;;12.00;97.40;;;;;;4951658;28;20523;-68
2023/07/25 11:23:47;;;;;;;12.25;6.45;;;11.80;97.20;;;;;;4950062;28;20026;-69
2023/07/25 11:26:14;;;;;;;14.32;6.30;;;11.90;97.30;;;;;;4950675;28;20039;-69
2023/07/25 11:28:41;;;;;;;12.27;6.20;;;11.80;97.30;;;;;;4952512;28;20114;-70
2023/07/25 11:31:08;;;;;;;;;;;11.80;97.30;;;;;;4948255;28;20047;-70
2023/07/25 11:33:41;;;;;;;11.73;5.75;;;11.80;97.00;;;;;;4948865;28;19910;-70
2023/07/25 11:36:08;;;;;;;11.98;6.03;;;11.80;97.30;;;;;;4943245;28;20067;-69
2023/07/25 11:38:36;;;;;;;10.23;5.78;;;11.80;97.30;;;;;;4918746;28;20536;-70
2023/07/25 11:41:05;;;;;;;16.80;5.93;;;11.80;97.00;;;;;;4938001;28;20477;-69
2023/07/25 11:43:33;;;;;;;11.52;6.00;;;11.70;97.00;;;;;;4945824;28;20042;-70
2023/07/25 11:46:00;;;;;;;8.05;5.80;;;11.50;96.90;;;;;;4944748;28;20049;-71
2023/07/25 11:48:29;;;;;;;12.43;6.72;;;11.40;97.10;;;;;;4951120;28;20042;-70
2023/07/25 11:50:58;;;;;;;13.45;8.30;;;11.30;97.00;;;;;;4944790;28;20031;-70
2023/07/25 11:53:27;;;;;;;16.35;9.13;;;11.20;97.30;;;;;;4947769;28;20031;-70
2023/07/25 11:55:56;;;;;;;20.40;8.27;;;11.20;97.40;;;;;;4949713;28;20445;-72
2023/07/25 11:58:23;;;;;;;17.25;7.45;;;11.10;97.10;;;;;;4952028;28;20047;-70
2023/07/25 12:00:54;;;;;;;13.50;7.18;;;11.00;97.10;;;;;;4940557;28;20063;-68
2023/07/25 12:03:25;;;;;;;15.60;7.50;;;10.90;97.10;;;;;;4951505;28;20046;-69
2023/07/25 12:06:02;;;;;;;13.63;8.32;;;10.80;97.00;;;;;;4950203;28;20361;-69
2023/07/25 12:08:41;;;;;;;13.00;7.65;;;10.70;97.00;;;;;;4951840;28;20440;-69
2023/07/25 12:11:13;;;;;;;12.13;7.32;;;10.60;97.20;;;;;;4952016;28;20529;-70
2023/07/25 12:13:48;;;;;;;12.95;7.55;;;10.50;97.30;;;;;;4949040;28;20433;-71
2023/07/25 12:16:34;;;;;;;16.52;8.75;;;10.40;97.30;;;;;;4948989;28;20106;-70
2023/07/25 12:19:10;;;;;;;13.57;8.23;;;10.30;97.20;;;;;;4950688;28;20429;-69
2023/07/25 12:21:40;;;;;;;14.65;8.52;;;10.30;97.20;;;;;;4927110;28;20616;-70
2023/07/25 12:24:09;;;;;;;13.63;8.98;;;10.20;97.20;;;;;;4945707;28;20040;-70
2023/07/25 12:26:51;;;;;;;18.13;9.90;;;10.20;97.40;;;;;;4948800;28;20034;-69
2023/07/25 12:29:27;;;;;;;15.82;10.43;;;10.10;97.30;;;;;;4956588;28;20039;-70
2023/07/25 12:31:55;;;;;;;18.33;11.05;;;10.10;97.40;;;;;;4935025;28;20050;-71
2023/07/25 12:34:23;;;;;;;18.77;11.07;;;10.10;97.40;;;;;;4941897;28;20031;-70
2023/07/25 12:36:52;;;;;;;23.42;11.27;;;10.10;96.90;;;;;;4935096;28;20516;-71
2023/07/25 12:39:20;;;;;;;18.70;11.02;;;10.00;97.20;;;;;;4942039;28;20036;-70
2023/07/25 12:41:47;;;;;;;20.00;10.70;;;10.10;97.20;;;;;;4944221;28;20401;-70
2023/07/25 12:44:15;;;;;;;18.58;10.60;;;10.10;96.90;;;;;;4942813;28;20655;-70
2023/07/25 12:46:44;;;;;;;19.35;10.10;;;10.00;96.90;;;;;;4949174;28;20073;-71
2023/07/25 12:49:11;;;;;;;22.40;9.55;;;10.20;97.20;;;;;;4951620;28;20031;-68
2023/07/25 12:51:39;;;;;;;15.90;9.02;;;10.50;96.80;;;;;;4945850;28;20031;-71